Lubbock, TX

10:11 PM CST on December 24, 2014 (GMT -0600)
APRSWXNET Lubbock TX US | Change Station
CLOSE
Current Station
Personal Weather Station
Location: Lubbock, TX
Elevation: 3221 ft
Nearby Weather Stations

Elev 3221 ft 33.58 °N, 101.88 °W | Updated 36 minutes ago

Clear
Clear
40 °F
Feels Like 37 °F
N
4
Wind Variable Wind from SSW
Gusts 17.0 mph

Today
High -- | Low -- °F
--% Chance of Precip.
Yesterday
High -- | Low -- °F
Precip. -- in
7:49 AM 5:44 PM
Waxing Crescent, 13% visible
Pressure 29.89 in
Visibility 10.0 miles
Clouds Clear
Windchill 37 °F
Dew Point 24 °F
Humidity 52%
Rainfall 0.00 in
Snow Depth Not available.
UV 0 out of 12
Pollen 7.50 out of 12
Air Quality Not available.
Flu Activity Not available.
METAR KLBB 250353Z 22011KT 10SM CLR 04/M06 A2989 RMK AO2 SLP122 T00391056

More Conditions Fewer Conditions

Pressure 29.89 in
Visibility 10.0 miles
Clouds Clear
Windchill 37 °F
Dew Point 24 °F
Humidity 52%
Rainfall 0.00 in
Snow Depth Not available.
UV 0 out of 12
Pollen 7.50 out of 12
Air Quality Not available.
Flu Activity Not available.
METAR KLBB 250353Z 22011KT 10SM CLR 04/M06 A2989 RMK AO2 SLP122 T00391056

More Conditions Fewer Conditions

10-Day Weather Forecast

Almanac

Astronomy

Dec. 24, 2014 Rise Set
Actual Time
Civil Twilight
Nautical Twilight
Astronomical Twilight
Moon
Length of Visible Light
Length of Day
Tomorrow will be .
, % of the Moon is Illuminated

Today's Extremes

State Highs State Lows

Community

WunderPhotos

Upload Photos

1,780,234 photos uploaded!

WunderBlogs® & News

Nearby

Air Quality

  Air Quality AQ Index Pollutant
Not available.

Snow Depth

Station Depth Elevation

Earthquake Activity

City Distance Mag. Time & Date
Minimum magnitude displayed is 2.5.

Coastal Water Temperatures

Place Temperature

Nearby Weather Stations